createdAt,value
2022-12-05T04:02:15.474Z,3.90
2022-12-05T04:04:50.768Z,4.00
2022-12-05T04:07:21.513Z,4.10
2022-12-05T04:09:56.773Z,4.20
2022-12-05T04:12:28.127Z,4.30
2022-12-05T04:14:59.579Z,4.40
2022-12-05T04:17:36.309Z,4.40
2022-12-05T04:20:28.676Z,4.40
2022-12-05T04:22:56.569Z,4.40
2022-12-05T04:25:35.832Z,4.40
2022-12-05T04:28:21.499Z,4.40
2022-12-05T04:30:55.894Z,4.50
2022-12-05T04:33:34.253Z,4.50
2022-12-05T04:36:08.665Z,4.30
2022-12-05T04:38:42.438Z,4.30
2022-12-05T04:41:15.278Z,4.20
2022-12-05T04:43:46.040Z,4.10
2022-12-05T04:46:16.722Z,4.10
2022-12-05T04:48:51.491Z,4.20
2022-12-05T04:51:24.626Z,4.30
2022-12-05T04:54:01.718Z,4.40
2022-12-05T04:56:35.040Z,4.20
2022-12-05T04:59:02.983Z,4.00
2022-12-05T05:01:36.343Z,4.10
2022-12-05T05:04:12.404Z,4.10
2022-12-05T05:06:41.511Z,4.10
2022-12-05T05:09:10.703Z,4.10
2022-12-05T05:11:39.194Z,4.00
2022-12-05T05:14:08.101Z,4.10
2022-12-05T05:16:38.017Z,4.00
2022-12-05T05:19:09.331Z,4.10
2022-12-05T05:21:39.447Z,4.10
2022-12-05T05:24:09.356Z,4.10
2022-12-05T05:26:39.039Z,4.20
2022-12-05T05:29:07.621Z,4.20
2022-12-05T05:31:35.691Z,4.30
2022-12-05T05:34:09.396Z,4.20
2022-12-05T05:36:40.199Z,4.30
2022-12-05T05:39:13.171Z,4.30
2022-12-05T05:41:41.008Z,4.30
2022-12-05T05:44:08.825Z,4.30
2022-12-05T05:46:37.423Z,4.30
2022-12-05T05:49:05.495Z,4.30
2022-12-05T05:51:33.328Z,4.40
2022-12-05T05:54:02.646Z,4.30
2022-12-05T05:56:30.884Z,4.20
2022-12-05T05:59:00.430Z,4.10
2022-12-05T06:01:28.990Z,3.90
2022-12-05T06:04:02.831Z,3.80
2022-12-05T06:06:30.889Z,3.80
2022-12-05T06:08:58.773Z,3.80
2022-12-05T06:11:29.353Z,3.80
2022-12-05T06:13:58.522Z,3.80
2022-12-05T06:16:26.620Z,3.80
2022-12-05T06:18:55.001Z,3.80
2022-12-05T06:21:23.707Z,3.80
2022-12-05T06:23:51.765Z,3.80
2022-12-05T06:26:21.867Z,3.90
2022-12-05T06:28:52.271Z,3.90
2022-12-05T06:31:23.473Z,4.00
2022-12-05T06:33:51.878Z,4.00
2022-12-05T06:36:22.112Z,4.10
2022-12-05T06:38:50.356Z,4.20
2022-12-05T06:41:19.990Z,4.00
2022-12-05T06:43:48.229Z,4.00
2022-12-05T06:46:17.651Z,4.00
2022-12-05T06:48:45.618Z,4.10
2022-12-05T06:51:16.052Z,4.10
2022-12-05T06:53:44.301Z,4.20
2022-12-05T06:56:15.157Z,4.30
2022-12-05T06:58:43.832Z,4.30
2022-12-05T07:01:31.185Z,4.20
2022-12-05T07:04:01.065Z,4.10
2022-12-05T07:06:30.474Z,4.20
2022-12-05T07:08:59.601Z,4.30
2022-12-05T07:11:27.636Z,4.30
2022-12-05T07:13:55.554Z,4.30
2022-12-05T07:16:23.927Z,4.30
2022-12-05T07:18:51.882Z,4.20
2022-12-05T07:21:24.541Z,4.20
2022-12-05T07:23:52.445Z,4.10
2022-12-05T07:26:23.738Z,4.00
2022-12-05T07:28:53.213Z,4.00
2022-12-05T07:31:23.122Z,4.10
2022-12-05T07:33:51.479Z,4.10
2022-12-05T07:36:21.414Z,4.10
2022-12-05T07:38:55.956Z,4.20
2022-12-05T07:41:25.764Z,4.30
2022-12-05T07:43:56.025Z,4.50
2022-12-05T07:46:25.071Z,4.40
2022-12-05T07:48:53.897Z,4.50
2022-12-05T07:51:23.279Z,4.50
2022-12-05T07:53:52.588Z,4.50
2022-12-05T07:56:20.487Z,4.50
2022-12-05T07:58:49.874Z,4.60
2022-12-05T08:01:19.818Z,4.50
2022-12-05T08:03:48.229Z,4.60
2022-12-05T08:06:19.968Z,4.70
2022-12-05T08:08:49.958Z,4.70
2022-12-05T08:11:22.513Z,4.60
2022-12-05T08:13:51.392Z,4.70
2022-12-05T08:16:22.068Z,5.00
2022-12-05T08:18:50.343Z,5.10
2022-12-05T08:21:20.281Z,5.30
2022-12-05T08:23:48.809Z,5.50
2022-12-05T08:26:20.378Z,5.50
2022-12-05T08:28:52.972Z,5.50
2022-12-05T08:31:30.448Z,5.60
2022-12-05T08:34:00.597Z,5.60
2022-12-05T08:36:31.972Z,5.60
2022-12-05T08:39:06.762Z,5.60
2022-12-05T08:41:41.065Z,5.70
2022-12-05T08:44:10.286Z,5.70
2022-12-05T08:46:39.232Z,5.80
2022-12-05T08:49:07.428Z,5.80
2022-12-05T08:51:35.481Z,5.80
2022-12-05T08:54:04.107Z,5.80
2022-12-05T08:56:41.439Z,5.80
2022-12-05T08:59:10.517Z,5.90
2022-12-05T09:01:39.107Z,5.90
2022-12-05T09:04:12.318Z,5.90
2022-12-05T09:06:41.699Z,5.90
2022-12-05T09:09:12.472Z,6.00
2022-12-05T09:11:46.554Z,5.90
2022-12-05T09:14:15.126Z,6.00
2022-12-05T09:16:45.724Z,6.00
2022-12-05T09:19:15.260Z,6.00
2022-12-05T09:21:43.967Z,6.00
2022-12-05T09:24:15.209Z,6.10
2022-12-05T09:26:45.241Z,6.10
2022-12-05T09:29:18.428Z,6.00
2022-12-05T09:31:47.930Z,6.10
2022-12-05T09:34:17.874Z,6.20
2022-12-05T09:36:51.176Z,6.20
2022-12-05T09:39:20.210Z,6.10
2022-12-05T09:42:08.177Z,6.10
2022-12-05T09:44:45.556Z,6.10
2022-12-05T09:47:19.959Z,6.10
2022-12-05T09:49:51.806Z,6.10
2022-12-05T09:52:28.707Z,6.10
2022-12-05T09:54:58.358Z,6.10
2022-12-05T09:57:35.526Z,6.10
2022-12-05T10:00:06.767Z,6.10
2022-12-05T10:03:12.716Z,6.00
2022-12-05T10:05:48.186Z,6.10
2022-12-05T10:08:27.150Z,6.10
2022-12-05T10:11:01.192Z,6.10
2022-12-05T10:13:46.377Z,6.20
2022-12-05T10:16:19.507Z,6.20
2022-12-05T10:18:53.545Z,6.20
2022-12-05T10:21:24.902Z,6.20
2022-12-05T10:23:58.372Z,6.20
2022-12-05T10:26:31.040Z,6.20
2022-12-05T10:29:08.231Z,6.20
2022-12-05T10:31:39.188Z,6.20
2022-12-05T10:34:14.771Z,6.30
2022-12-05T10:36:45.491Z,6.30
2022-12-05T10:39:13.374Z,6.30
2022-12-05T10:41:41.272Z,6.30
2022-12-05T10:44:11.726Z,6.30
2022-12-05T10:46:39.694Z,6.30
2022-12-05T10:49:12.863Z,6.40
2022-12-05T10:51:41.239Z,6.40
2022-12-05T10:54:19.280Z,6.40
2022-12-05T10:56:49.704Z,6.40
2022-12-05T10:59:20.867Z,6.40
2022-12-05T11:01:52.225Z,6.40
2022-12-05T11:04:27.456Z,6.40
2022-12-05T11:06:59.332Z,6.40
2022-12-05T11:09:29.451Z,6.50
2022-12-05T11:12:16.597Z,6.50
2022-12-05T11:14:58.285Z,6.50
2022-12-05T11:17:28.804Z,6.50
2022-12-05T11:19:56.757Z,6.50
2022-12-05T11:22:32.893Z,6.50
2022-12-05T11:25:01.114Z,6.50
2022-12-05T11:27:31.550Z,6.50
2022-12-05T11:30:03.980Z,6.50
2022-12-05T11:32:34.637Z,6.50
2022-12-05T11:35:27.375Z,6.60
2022-12-05T11:37:58.430Z,6.60
2022-12-05T11:40:45.074Z,6.70
2022-12-05T11:43:29.614Z,6.70
2022-12-05T11:46:10.781Z,6.70
2022-12-05T11:48:53.737Z,6.70
2022-12-05T11:51:36.779Z,6.70
2022-12-05T11:55:03.968Z,6.70
2022-12-05T11:57:35.408Z,6.60
2022-12-05T12:00:13.678Z,6.60
2022-12-05T12:03:10.113Z,6.60
2022-12-05T12:05:44.145Z,6.60
2022-12-05T12:08:22.521Z,6.60
2022-12-05T12:11:00.830Z,6.70
2022-12-05T12:13:51.593Z,6.70
2022-12-05T12:16:29.054Z,6.70
2022-12-05T12:19:09.370Z,6.70
2022-12-05T12:21:51.746Z,6.80
2022-12-05T12:24:28.404Z,6.80
2022-12-05T12:27:07.254Z,6.80
2022-12-05T12:29:51.908Z,6.80
2022-12-05T12:32:30.602Z,6.70
2022-12-05T12:35:31.298Z,6.70
2022-12-05T12:38:17.754Z,6.80
2022-12-05T12:40:51.003Z,6.80
2022-12-05T12:43:54.391Z,6.80
2022-12-05T12:46:44.421Z,6.80
2022-12-05T12:49:29.237Z,6.80
2022-12-05T12:52:02.886Z,6.80
2022-12-05T12:57:39.392Z,6.70
2022-12-05T13:00:20.641Z,6.80
2022-12-05T13:02:53.349Z,6.80
2022-12-05T13:05:27.632Z,6.80
2022-12-05T13:08:02.587Z,6.90
2022-12-05T13:10:35.796Z,6.90
2022-12-05T13:13:06.039Z,6.90
2022-12-05T13:15:40.873Z,6.90
2022-12-05T13:18:15.988Z,6.90
2022-12-05T13:20:45.338Z,6.90
2022-12-05T13:23:17.699Z,6.90
2022-12-05T13:25:47.206Z,7.00
2022-12-05T13:28:26.890Z,7.00
2022-12-05T13:31:03.731Z,7.00
2022-12-05T13:33:35.067Z,7.00
2022-12-05T13:36:27.569Z,7.00
2022-12-05T13:39:19.978Z,7.00
2022-12-05T13:42:08.502Z,6.90
2022-12-05T13:44:42.487Z,7.00
2022-12-05T13:47:24.850Z,7.00
2022-12-05T13:49:57.286Z,7.00
2022-12-05T13:52:28.574Z,7.00
2022-12-05T13:55:01.627Z,7.00
2022-12-05T13:57:54.448Z,7.00
2022-12-05T14:00:31.491Z,7.00
2022-12-05T14:03:07.613Z,7.00
2022-12-05T14:05:47.042Z,7.00
2022-12-05T14:08:52.535Z,7.10
2022-12-05T14:11:22.132Z,7.00
2022-12-05T14:13:50.110Z,7.00
2022-12-05T14:16:49.855Z,7.00
2022-12-05T14:19:34.785Z,7.00
2022-12-05T14:22:20.482Z,7.10
2022-12-05T14:24:58.032Z,7.00
2022-12-05T14:27:43.459Z,7.00
2022-12-05T14:30:22.495Z,7.00
2022-12-05T14:32:53.014Z,7.00
2022-12-05T14:35:25.013Z,7.00
2022-12-05T14:37:55.539Z,7.00
2022-12-05T14:40:30.972Z,7.10
2022-12-05T14:43:02.417Z,7.00
2022-12-05T14:45:35.688Z,7.00
2022-12-05T14:48:06.525Z,7.00
2022-12-05T14:50:45.903Z,7.00
2022-12-05T14:53:31.963Z,7.00
2022-12-05T14:56:11.524Z,7.00
2022-12-05T14:58:45.188Z,7.00
2022-12-05T15:01:18.178Z,7.00
2022-12-05T15:04:04.227Z,7.00
2022-12-05T15:06:34.776Z,7.00
2022-12-05T15:09:35.634Z,7.00
2022-12-05T15:11:58.086Z,6.90
2022-12-05T15:14:31.487Z,6.90
2022-12-05T15:17:02.400Z,6.90
2022-12-05T15:19:38.271Z,7.00
2022-12-05T15:22:08.533Z,6.90
2022-12-05T15:24:39.398Z,6.90
2022-12-05T15:27:11.542Z,6.90
2022-12-05T15:29:41.849Z,6.90
2022-12-05T15:32:19.601Z,6.90
2022-12-05T15:34:54.303Z,7.00
2022-12-05T15:37:26.052Z,6.90
2022-12-05T15:39:56.837Z,6.90
2022-12-05T15:42:29.876Z,6.90
2022-12-05T15:45:18.305Z,6.90
2022-12-05T15:47:48.653Z,6.90
2022-12-05T15:50:18.015Z,6.90
2022-12-05T15:52:48.732Z,6.90
2022-12-05T15:55:21.661Z,6.90
2022-12-05T15:57:54.928Z,6.90
2022-12-05T16:00:26.025Z,6.90
2022-12-05T16:02:59.820Z,7.00
2022-12-05T16:05:35.258Z,6.90
2022-12-05T16:08:04.273Z,6.90
2022-12-05T16:10:33.095Z,7.00
2022-12-05T16:13:06.041Z,7.00
2022-12-05T16:15:35.451Z,7.00
2022-12-05T16:18:05.992Z,6.90
2022-12-05T16:20:35.485Z,7.00
2022-12-05T16:23:05.777Z,7.00
2022-12-05T16:25:35.468Z,7.00
2022-12-05T16:28:16.622Z,7.00
2022-12-05T16:30:57.703Z,7.00
2022-12-05T16:33:26.718Z,7.00
2022-12-05T16:35:54.758Z,7.00
2022-12-05T16:38:25.706Z,7.00
2022-12-05T16:40:57.827Z,7.00
2022-12-05T16:43:30.124Z,7.00
2022-12-05T16:46:08.901Z,7.00
2022-12-05T16:48:39.776Z,7.00
2022-12-05T16:51:19.168Z,7.00
2022-12-05T16:53:49.566Z,7.00
2022-12-05T16:56:23.458Z,7.00
2022-12-05T16:58:52.644Z,7.00
2022-12-05T17:01:25.534Z,7.00
2022-12-05T17:03:54.456Z,7.00
2022-12-05T17:06:24.125Z,7.00
2022-12-05T17:08:52.599Z,6.90
2022-12-05T17:11:24.040Z,7.00
2022-12-05T17:13:53.477Z,7.00
2022-12-05T17:16:29.025Z,7.00
2022-12-05T17:18:56.992Z,7.00
2022-12-05T17:21:27.885Z,7.00
2022-12-05T17:23:55.756Z,7.00
2022-12-05T17:26:23.785Z,7.00
2022-12-05T17:28:52.801Z,7.00
2022-12-05T17:31:22.471Z,7.00
2022-12-05T17:33:55.329Z,7.00
2022-12-05T17:36:24.286Z,7.00
2022-12-05T17:38:53.169Z,7.00
2022-12-05T17:41:23.881Z,7.00
2022-12-05T17:43:52.228Z,7.00
2022-12-05T17:46:22.563Z,7.00
2022-12-05T17:48:52.066Z,7.00
2022-12-05T17:51:22.022Z,7.00
2022-12-05T17:53:50.161Z,7.00
2022-12-05T17:56:18.004Z,7.00
2022-12-05T17:58:46.649Z,7.00
2022-12-05T18:01:16.405Z,7.00
2022-12-05T18:03:57.845Z,7.00
2022-12-05T18:06:28.759Z,7.00
2022-12-05T18:08:58.592Z,7.00
2022-12-05T18:11:26.537Z,7.10
2022-12-05T18:13:55.306Z,7.10
2022-12-05T18:16:24.371Z,7.10
2022-12-05T18:18:52.272Z,7.00
2022-12-05T18:21:23.184Z,7.10
2022-12-05T18:23:52.822Z,7.00
2022-12-05T18:26:20.753Z,7.00
2022-12-05T18:28:48.747Z,7.00
2022-12-05T18:31:18.188Z,7.00
2022-12-05T18:33:47.282Z,7.00
2022-12-05T18:36:17.253Z,7.00
2022-12-05T18:38:52.721Z,7.00
2022-12-05T18:41:26.563Z,7.00
2022-12-05T18:43:55.381Z,7.00
2022-12-05T18:46:23.559Z,7.00
2022-12-05T18:48:52.715Z,7.00
2022-12-05T18:51:22.648Z,7.00
2022-12-05T18:53:54.668Z,7.00
2022-12-05T18:56:25.360Z,7.00
2022-12-05T18:58:54.968Z,7.00
2022-12-05T19:01:22.926Z,7.00
2022-12-05T19:03:51.267Z,7.00
2022-12-05T19:06:21.434Z,7.00
2022-12-05T19:08:49.958Z,7.00
2022-12-05T19:11:20.056Z,7.00
2022-12-05T19:13:48.466Z,7.00
2022-12-05T19:16:18.478Z,7.00
2022-12-05T19:18:47.157Z,7.00
2022-12-05T19:21:15.388Z,7.00
2022-12-05T19:23:44.244Z,7.00
2022-12-05T19:26:12.216Z,7.00
2022-12-05T19:28:41.481Z,7.00
2022-12-05T19:31:11.319Z,7.00
2022-12-05T19:33:41.996Z,7.00
2022-12-05T19:36:11.844Z,7.00
2022-12-05T19:38:42.318Z,7.00
2022-12-05T19:41:11.779Z,7.00
2022-12-05T19:43:44.707Z,7.00
2022-12-05T19:46:20.052Z,7.00
2022-12-05T19:48:48.421Z,6.90
2022-12-05T19:51:16.394Z,6.90
2022-12-05T19:53:46.065Z,6.80
2022-12-05T19:56:15.770Z,6.90
2022-12-05T19:58:45.413Z,6.90
2022-12-05T20:01:15.078Z,6.90
2022-12-05T20:03:44.345Z,6.90
2022-12-05T20:06:12.359Z,6.90
2022-12-05T20:08:41.345Z,6.90
2022-12-05T20:11:10.861Z,6.90
2022-12-05T20:13:48.091Z,6.90
2022-12-05T20:16:21.237Z,6.90
2022-12-05T20:18:50.373Z,6.90
2022-12-05T20:21:20.247Z,6.90
2022-12-05T20:23:48.760Z,6.90
2022-12-05T20:26:19.022Z,7.00
2022-12-05T20:28:47.649Z,6.90
2022-12-05T20:31:19.923Z,7.00
2022-12-05T20:33:48.278Z,6.90
2022-12-05T20:36:17.960Z,6.90
2022-12-05T20:38:48.594Z,6.90
2022-12-05T20:41:18.404Z,6.80
2022-12-05T20:43:48.087Z,6.80
2022-12-05T20:46:19.123Z,6.70
2022-12-05T20:48:49.034Z,6.70
2022-12-05T20:51:19.397Z,6.70
2022-12-05T20:53:47.845Z,6.70
2022-12-05T20:56:17.060Z,6.70
2022-12-05T20:58:46.368Z,6.60
2022-12-05T21:01:15.455Z,6.60
2022-12-05T21:03:46.793Z,6.60
2022-12-05T21:06:18.249Z,6.60
2022-12-05T21:08:46.721Z,6.70
2022-12-05T21:11:17.727Z,6.70
2022-12-05T21:13:47.137Z,6.70
2022-12-05T21:16:18.267Z,6.80
2022-12-05T21:18:49.298Z,6.80
2022-12-05T21:21:20.253Z,6.80
2022-12-05T21:23:53.588Z,6.70
2022-12-05T21:26:25.191Z,6.70
2022-12-05T21:28:53.033Z,6.70
2022-12-05T21:31:23.128Z,6.70
2022-12-05T21:33:55.130Z,6.70
2022-12-05T21:36:23.413Z,6.70
2022-12-05T21:38:55.927Z,6.70
2022-12-05T21:41:24.748Z,6.70
2022-12-05T21:43:55.224Z,6.80
2022-12-05T21:46:24.473Z,6.80
2022-12-05T21:48:53.999Z,6.90
2022-12-05T21:51:27.792Z,6.90
2022-12-05T21:53:55.918Z,6.80
2022-12-05T21:56:25.318Z,6.90
2022-12-05T21:58:53.767Z,6.90
2022-12-05T22:01:23.762Z,6.90
2022-12-05T22:03:59.166Z,6.90
2022-12-05T22:06:27.227Z,6.90
2022-12-05T22:08:55.753Z,6.90
2022-12-05T22:11:24.714Z,6.90
2022-12-05T22:13:53.176Z,7.00
2022-12-05T22:16:21.642Z,6.90
2022-12-05T22:18:51.590Z,6.90
2022-12-05T22:21:22.088Z,6.90
2022-12-05T22:23:50.485Z,6.90
2022-12-05T22:26:20.393Z,6.80
2022-12-05T22:28:50.393Z,6.80
2022-12-05T22:31:19.169Z,6.80
2022-12-05T22:33:47.568Z,6.80
2022-12-05T22:36:16.824Z,6.70
2022-12-05T22:38:47.957Z,6.80
2022-12-05T22:41:17.987Z,6.70
2022-12-05T22:43:47.466Z,6.70
2022-12-05T22:46:18.248Z,6.60
2022-12-05T22:48:46.935Z,6.50
2022-12-05T22:51:15.405Z,6.60
2022-12-05T22:53:45.821Z,6.60
2022-12-05T22:56:15.957Z,6.50
2022-12-05T22:58:44.532Z,6.50
